createdAt,value
2023-04-16T00:00:15.446Z,59.51
2023-04-16T00:01:15.612Z,59.53
2023-04-16T00:02:15.918Z,59.79
2023-04-16T00:03:16.234Z,59.74
2023-04-16T00:04:16.421Z,59.10
2023-04-16T00:05:16.498Z,59.37
2023-04-16T00:06:16.694Z,59.20
2023-04-16T00:07:16.898Z,59.53
2023-04-16T00:08:17.103Z,59.40
2023-04-16T00:09:17.289Z,59.22
2023-04-16T00:10:17.479Z,59.23
2023-04-16T00:11:17.765Z,59.50
2023-04-16T00:12:18.026Z,59.26
2023-04-16T00:13:18.184Z,59.15
2023-04-16T00:14:18.356Z,59.21
2023-04-16T00:15:18.556Z,59.11
2023-04-16T00:16:18.819Z,59.16
2023-04-16T00:17:18.975Z,59.10
2023-04-16T00:18:19.193Z,59.09
2023-04-16T00:19:19.419Z,58.79
2023-04-16T00:20:19.600Z,58.71
2023-04-16T00:21:19.770Z,59.67
2023-04-16T00:22:20.014Z,59.34
2023-04-16T00:23:20.254Z,60.62
2023-04-16T00:24:20.478Z,60.88
2023-04-16T00:25:20.718Z,60.27
2023-04-16T00:26:20.944Z,61.89
2023-04-16T00:27:21.137Z,61.17
2023-04-16T00:28:21.361Z,61.15
2023-04-16T00:29:21.588Z,60.88
2023-04-16T00:30:21.830Z,61.53
2023-04-16T00:31:22.083Z,60.80
2023-04-16T00:32:22.273Z,60.86
2023-04-16T00:33:22.452Z,61.27
2023-04-16T00:34:22.686Z,60.79
2023-04-16T00:35:22.860Z,60.44
2023-04-16T00:36:23.024Z,60.45
2023-04-16T00:37:23.255Z,61.13
2023-04-16T00:38:23.426Z,60.80
2023-04-16T00:39:23.697Z,60.22
2023-04-16T00:40:23.846Z,59.86
2023-04-16T00:41:24.068Z,61.40
2023-04-16T00:42:24.286Z,61.82
2023-04-16T00:43:24.439Z,61.22
2023-04-16T00:44:24.598Z,61.24
2023-04-16T00:45:24.835Z,61.46
2023-04-16T00:46:25.049Z,61.52
2023-04-16T00:47:25.198Z,62.35
2023-04-16T00:48:25.426Z,61.83
2023-04-16T00:49:25.617Z,61.91
2023-04-16T00:50:25.795Z,61.54
2023-04-16T00:51:25.982Z,61.92
2023-04-16T00:52:26.156Z,61.84
2023-04-16T00:53:26.333Z,61.90
2023-04-16T00:54:26.499Z,61.60
2023-04-16T00:55:26.753Z,61.87
2023-04-16T00:56:26.938Z,61.56
2023-04-16T00:57:27.118Z,61.31
2023-04-16T00:58:27.296Z,61.30
2023-04-16T00:59:27.522Z,61.55
2023-04-16T01:00:27.687Z,61.21
2023-04-16T01:01:27.856Z,61.11
2023-04-16T01:02:28.141Z,60.47
2023-04-16T01:03:28.485Z,60.81
2023-04-16T01:04:28.483Z,60.74
2023-04-16T01:05:28.659Z,60.57
2023-04-16T01:06:28.824Z,60.07
2023-04-16T01:07:29.020Z,59.96
2023-04-16T01:08:29.225Z,59.85
2023-04-16T01:09:29.434Z,60.35
2023-04-16T01:10:29.625Z,60.45
2023-04-16T01:11:29.828Z,60.24
2023-04-16T01:12:30.009Z,59.89
2023-04-16T01:13:30.201Z,60.27
2023-04-16T01:14:30.399Z,60.00
2023-04-16T01:15:30.597Z,59.61
2023-04-16T01:16:30.846Z,59.50
2023-04-16T01:17:31.037Z,59.71
2023-04-16T01:18:31.077Z,59.71
2023-04-16T01:19:31.331Z,59.73
2023-04-16T01:20:31.478Z,60.44
2023-04-16T01:21:31.640Z,60.07
2023-04-16T01:22:31.830Z,59.79
2023-04-16T01:23:32.037Z,60.03
2023-04-16T01:24:32.323Z,59.95
2023-04-16T01:25:32.512Z,59.84
2023-04-16T01:26:32.752Z,59.83
2023-04-16T01:27:33.019Z,60.04
2023-04-16T01:28:33.226Z,59.77
2023-04-16T01:29:33.394Z,60.18
2023-04-16T01:30:33.636Z,60.93
2023-04-16T01:31:33.917Z,60.32
2023-04-16T01:32:34.137Z,61.54
2023-04-16T01:33:34.350Z,61.44
2023-04-16T01:34:34.550Z,60.94
2023-04-16T01:35:34.732Z,61.12
2023-04-16T01:36:34.973Z,60.82
2023-04-16T01:37:35.188Z,60.87
2023-04-16T01:38:35.473Z,61.12
2023-04-16T01:39:35.707Z,60.84
2023-04-16T01:40:35.869Z,60.83
2023-04-16T01:41:36.102Z,60.85
2023-04-16T01:42:36.275Z,60.46
2023-04-16T01:43:38.473Z,60.47
2023-04-16T01:44:36.479Z,60.49
2023-04-16T01:45:36.453Z,60.70
2023-04-16T01:46:36.440Z,60.34
2023-04-16T01:47:36.400Z,60.29
2023-04-16T01:48:36.343Z,60.38
2023-04-16T01:49:36.298Z,60.54
2023-04-16T01:50:36.269Z,60.65
2023-04-16T01:51:36.220Z,60.46
2023-04-16T01:52:36.190Z,59.96
2023-04-16T01:53:37.226Z,60.02
2023-04-16T01:54:36.120Z,60.48
2023-04-16T01:55:36.106Z,60.47
2023-04-16T01:56:36.050Z,60.21
2023-04-16T01:57:36.015Z,60.48
2023-04-16T01:58:35.972Z,61.47
2023-04-16T01:59:35.942Z,61.23
2023-04-16T02:00:35.952Z,61.14
2023-04-16T02:01:35.883Z,61.74
2023-04-16T02:02:35.936Z,61.63
2023-04-16T02:03:35.979Z,61.56
2023-04-16T02:04:35.803Z,61.47
2023-04-16T02:05:35.781Z,61.35
2023-04-16T02:06:35.730Z,61.16
2023-04-16T02:07:35.700Z,61.22
2023-04-16T02:08:35.778Z,61.32
2023-04-16T02:09:35.745Z,61.15
2023-04-16T02:10:35.733Z,61.18
2023-04-16T02:11:35.682Z,62.19
2023-04-16T02:12:35.645Z,61.38
2023-04-16T02:13:35.606Z,61.24
2023-04-16T02:14:35.588Z,61.13
2023-04-16T02:15:35.536Z,61.14
2023-04-16T02:16:35.552Z,60.63
2023-04-16T02:17:35.500Z,60.51
2023-04-16T02:18:35.440Z,60.33
2023-04-16T02:19:35.408Z,59.98
2023-04-16T02:20:35.423Z,60.72
2023-04-16T02:21:35.393Z,61.57
2023-04-16T02:22:35.365Z,60.85
2023-04-16T02:23:35.322Z,60.83
2023-04-16T02:24:35.286Z,60.93
2023-04-16T02:25:35.253Z,60.95
2023-04-16T02:26:35.215Z,61.06
2023-04-16T02:27:35.190Z,60.98
2023-04-16T02:28:35.158Z,61.05
2023-04-16T02:29:35.124Z,60.91
2023-04-16T02:30:35.076Z,60.94
2023-04-16T02:31:35.090Z,60.67
2023-04-16T02:32:35.016Z,60.61
2023-04-16T02:33:34.977Z,60.52
2023-04-16T02:34:34.940Z,60.49
2023-04-16T02:35:34.912Z,60.64
2023-04-16T02:36:34.874Z,60.52
2023-04-16T02:37:34.843Z,60.55
2023-04-16T02:38:34.811Z,60.77
2023-04-16T02:39:34.777Z,60.99
2023-04-16T02:40:34.747Z,61.06
2023-04-16T02:41:34.706Z,60.96
2023-04-16T02:42:34.665Z,60.87
2023-04-16T02:43:34.623Z,61.10
2023-04-16T02:44:34.594Z,60.95
2023-04-16T02:45:34.579Z,60.89
2023-04-16T02:46:34.511Z,60.79
2023-04-16T02:47:34.527Z,60.81
2023-04-16T02:48:34.433Z,60.72
2023-04-16T02:49:34.422Z,60.73
2023-04-16T02:50:34.393Z,60.53
2023-04-16T02:51:34.413Z,60.83
2023-04-16T02:52:34.433Z,60.82
2023-04-16T02:53:34.446Z,60.83
2023-04-16T02:54:34.463Z,61.15
2023-04-16T02:55:34.448Z,61.51
2023-04-16T02:56:34.446Z,61.10
2023-04-16T02:57:34.417Z,60.92
2023-04-16T02:58:34.387Z,60.83
2023-04-16T02:59:34.376Z,60.85
2023-04-16T03:00:34.335Z,60.64
2023-04-16T03:01:34.364Z,60.78
2023-04-16T03:02:34.384Z,60.69
2023-04-16T03:03:34.310Z,60.90
2023-04-16T03:04:34.391Z,60.79
2023-04-16T03:05:34.328Z,60.65
2023-04-16T03:06:34.393Z,60.79
2023-04-16T03:07:34.555Z,60.60
2023-04-16T03:08:34.730Z,60.62
2023-04-16T03:09:34.974Z,60.80
2023-04-16T03:10:35.186Z,60.63
2023-04-16T03:11:35.392Z,60.63
2023-04-16T03:12:35.564Z,61.05
2023-04-16T03:13:35.716Z,60.95
2023-04-16T03:14:35.960Z,61.09
2023-04-16T03:15:36.226Z,61.04
2023-04-16T03:16:36.367Z,61.15
2023-04-16T03:17:36.614Z,61.05
2023-04-16T03:18:36.755Z,60.97
2023-04-16T03:19:36.999Z,61.13
2023-04-16T03:20:37.150Z,60.95
2023-04-16T03:21:37.325Z,61.04
2023-04-16T03:22:37.517Z,61.21
2023-04-16T03:23:37.778Z,61.55
2023-04-16T03:24:37.961Z,61.42
2023-04-16T03:25:38.132Z,61.11
2023-04-16T03:26:38.330Z,60.89
2023-04-16T03:27:38.523Z,60.89
2023-04-16T03:28:38.715Z,61.01
2023-04-16T03:29:38.939Z,61.17
2023-04-16T03:30:39.188Z,60.99
2023-04-16T03:31:39.410Z,60.88
2023-04-16T03:32:39.616Z,61.03
2023-04-16T03:33:39.791Z,61.12
2023-04-16T03:34:39.973Z,61.05
2023-04-16T03:35:40.167Z,60.83
2023-04-16T03:36:40.350Z,60.76
2023-04-16T03:37:40.616Z,60.43
2023-04-16T03:38:40.796Z,60.72
2023-04-16T03:39:41.010Z,60.83
2023-04-16T03:40:41.162Z,60.89
2023-04-16T03:41:41.485Z,60.84
2023-04-16T03:42:41.625Z,60.74
2023-04-16T03:43:41.797Z,60.42
2023-04-16T03:44:41.954Z,60.38
2023-04-16T03:45:42.141Z,60.87
2023-04-16T03:46:42.350Z,60.44
2023-04-16T03:47:42.547Z,60.46
2023-04-16T03:48:42.700Z,60.82
2023-04-16T03:49:42.900Z,60.56
2023-04-16T03:50:43.146Z,60.75
2023-04-16T03:51:43.307Z,60.68
2023-04-16T03:52:43.525Z,61.52
2023-04-16T03:53:43.696Z,61.31
2023-04-16T03:54:43.959Z,61.12
2023-04-16T03:55:44.126Z,61.15
2023-04-16T03:56:44.380Z,61.00
2023-04-16T03:57:44.553Z,61.14
2023-04-16T03:58:44.745Z,60.93
2023-04-16T03:59:44.921Z,60.97
2023-04-16T04:00:45.097Z,60.77
2023-04-16T04:01:45.258Z,60.85
2023-04-16T04:02:45.532Z,60.77
2023-04-16T04:03:45.893Z,60.90
2023-04-16T04:04:46.021Z,61.13
2023-04-16T04:05:46.042Z,60.97
2023-04-16T04:06:46.214Z,61.40
2023-04-16T04:07:46.391Z,61.48
2023-04-16T04:08:46.647Z,61.41
2023-04-16T04:09:46.847Z,61.31
2023-04-16T04:10:47.009Z,61.20
2023-04-16T04:11:47.223Z,61.10
2023-04-16T04:12:47.371Z,61.18
2023-04-16T04:13:47.525Z,61.00
2023-04-16T04:14:47.732Z,61.06
2023-04-16T04:15:48.011Z,60.83
2023-04-16T04:16:48.227Z,60.92
2023-04-16T04:17:48.434Z,61.00
2023-04-16T04:18:48.597Z,61.17
2023-04-16T04:20:00.533Z,61.22
2023-04-16T04:20:49.743Z,61.23
2023-04-16T04:21:48.709Z,61.31
2023-04-16T04:22:48.664Z,61.20
2023-04-16T04:23:48.650Z,61.22
2023-04-16T04:24:48.610Z,61.40
2023-04-16T04:25:48.613Z,61.47
2023-04-16T04:26:48.544Z,61.30
2023-04-16T04:27:48.526Z,61.21
2023-04-16T04:28:48.505Z,61.18
2023-04-16T04:29:48.518Z,61.22
2023-04-16T04:30:48.570Z,61.20
2023-04-16T04:31:48.638Z,61.05
2023-04-16T04:32:48.661Z,61.06
2023-04-16T04:33:48.672Z,60.96
2023-04-16T04:34:48.723Z,60.96
2023-04-16T04:35:48.757Z,60.97
2023-04-16T04:36:48.779Z,61.00
2023-04-16T04:37:48.837Z,61.15
2023-04-16T04:38:48.868Z,61.06
2023-04-16T04:39:48.915Z,61.13
2023-04-16T04:40:48.974Z,61.06
2023-04-16T04:41:48.983Z,60.91
2023-04-16T04:42:49.009Z,60.86
2023-04-16T04:43:49.086Z,61.09
2023-04-16T04:44:49.074Z,61.00
2023-04-16T04:45:49.325Z,61.19
2023-04-16T04:46:49.121Z,61.09
2023-04-16T04:47:49.192Z,61.06
2023-04-16T04:48:49.147Z,60.87
2023-04-16T04:49:49.320Z,61.03
2023-04-16T04:50:49.614Z,60.96
2023-04-16T04:51:50.267Z,60.94
2023-04-16T04:52:49.750Z,61.20
2023-04-16T04:53:49.759Z,61.43
2023-04-16T04:54:49.754Z,61.27
2023-04-16T04:55:53.167Z,61.26
2023-04-16T04:56:50.745Z,61.31
2023-04-16T04:57:49.705Z,61.27
2023-04-16T04:58:49.684Z,61.32
2023-04-16T04:59:49.641Z,61.35
2023-04-16T05:00:49.628Z,61.10
2023-04-16T05:01:49.596Z,61.16
2023-04-16T05:02:49.693Z,61.39
2023-04-16T05:03:49.593Z,61.26
2023-04-16T05:04:49.501Z,61.10
2023-04-16T05:05:49.457Z,61.37
2023-04-16T05:06:49.471Z,61.50
2023-04-16T05:07:49.488Z,61.38
2023-04-16T05:08:49.494Z,61.47
2023-04-16T05:09:49.497Z,61.33
2023-04-16T05:10:49.501Z,61.40
2023-04-16T05:11:49.498Z,61.44
2023-04-16T05:12:49.545Z,61.41
2023-04-16T05:13:49.536Z,61.20
2023-04-16T05:14:49.559Z,61.14
2023-04-16T05:15:49.564Z,61.36
2023-04-16T05:16:49.597Z,61.57
2023-04-16T05:17:49.661Z,61.45
2023-04-16T05:18:49.585Z,61.33
2023-04-16T05:19:49.606Z,61.33
2023-04-16T05:20:49.625Z,61.18
2023-04-16T05:21:49.624Z,61.29
2023-04-16T05:22:49.637Z,61.30
2023-04-16T05:23:49.661Z,61.40
2023-04-16T05:24:49.653Z,61.69
2023-04-16T05:25:49.798Z,61.66
2023-04-16T05:26:50.099Z,61.50
2023-04-16T05:27:50.325Z,61.50
2023-04-16T05:28:50.515Z,61.44
2023-04-16T05:29:50.765Z,61.26
2023-04-16T05:30:51.083Z,61.45
2023-04-16T05:31:51.232Z,61.15
2023-04-16T05:32:51.546Z,61.01
2023-04-16T05:33:51.695Z,61.22
2023-04-16T05:34:51.864Z,61.07
2023-04-16T05:35:52.134Z,61.01
2023-04-16T05:36:52.289Z,60.83
2023-04-16T05:37:52.490Z,61.11
2023-04-16T05:38:52.661Z,60.97
2023-04-16T05:39:52.876Z,60.74
2023-04-16T05:40:53.054Z,61.26
2023-04-16T05:41:53.257Z,61.17
2023-04-16T05:42:53.437Z,61.44
2023-04-16T05:43:53.624Z,61.75
2023-04-16T05:44:53.828Z,61.28
2023-04-16T05:45:54.063Z,61.06
2023-04-16T05:46:54.208Z,60.96
2023-04-16T05:47:54.397Z,60.90
2023-04-16T05:48:54.628Z,60.88
2023-04-16T05:49:54.806Z,60.94
2023-04-16T05:50:55.093Z,60.85
2023-04-16T05:51:55.268Z,60.75
2023-04-16T05:52:55.472Z,60.91
2023-04-16T05:53:55.680Z,61.23
2023-04-16T05:54:55.884Z,61.29
2023-04-16T05:55:56.066Z,61.36
2023-04-16T05:56:56.255Z,61.22
2023-04-16T05:57:56.447Z,61.18
2023-04-16T05:58:56.649Z,61.11
2023-04-16T05:59:56.838Z,61.15
2023-04-16T06:00:57.048Z,61.10
2023-04-16T06:01:57.230Z,61.07
2023-04-16T06:02:57.569Z,61.14
2023-04-16T06:03:57.809Z,61.16
2023-04-16T06:04:57.905Z,61.05
2023-04-16T06:05:58.273Z,61.09
2023-04-16T06:06:58.275Z,60.98
2023-04-16T06:07:58.516Z,61.07
2023-04-16T06:08:58.693Z,61.09
2023-04-16T06:09:58.883Z,61.09
2023-04-16T06:10:59.034Z,60.92
2023-04-16T06:11:59.289Z,60.64
2023-04-16T06:12:59.508Z,60.12
2023-04-16T06:13:59.734Z,59.98
2023-04-16T06:14:59.898Z,60.21
2023-04-16T06:16:00.128Z,60.10
2023-04-16T06:17:00.297Z,60.15
2023-04-16T06:18:01.047Z,60.48
2023-04-16T06:19:00.528Z,60.99
2023-04-16T06:20:00.551Z,60.85
2023-04-16T06:21:00.571Z,61.02
2023-04-16T06:22:00.613Z,61.20
2023-04-16T06:23:00.649Z,61.40
2023-04-16T06:24:00.671Z,61.52
2023-04-16T06:25:00.727Z,61.60
2023-04-16T06:26:00.729Z,61.42
2023-04-16T06:27:00.760Z,61.41
2023-04-16T06:28:00.803Z,61.06
2023-04-16T06:29:00.825Z,60.85
2023-04-16T06:30:01.092Z,60.96
2023-04-16T06:31:00.866Z,60.57
2023-04-16T06:32:00.878Z,60.67
2023-04-16T06:33:00.912Z,60.87
2023-04-16T06:34:00.931Z,61.15
2023-04-16T06:35:01.000Z,60.86
2023-04-16T06:36:00.992Z,61.16
2023-04-16T06:37:01.011Z,61.45
2023-04-16T06:38:01.032Z,61.49
2023-04-16T06:39:01.061Z,61.42
2023-04-16T06:40:01.091Z,61.41
2023-04-16T06:41:01.112Z,61.45
2023-04-16T06:42:01.137Z,61.49
2023-04-16T06:43:01.166Z,61.49
2023-04-16T06:44:01.199Z,61.52
2023-04-16T06:45:02.157Z,61.55
2023-04-16T06:46:01.111Z,61.68
2023-04-16T06:47:01.095Z,61.57
2023-04-16T06:48:01.348Z,61.60
2023-04-16T06:49:01.482Z,61.40
2023-04-16T06:50:01.686Z,61.45
2023-04-16T06:51:01.921Z,61.63
2023-04-16T06:52:03.878Z,61.56
2023-04-16T06:53:02.013Z,61.52
2023-04-16T06:54:01.963Z,61.50
2023-04-16T06:55:02.020Z,61.39
2023-04-16T06:56:01.878Z,61.21
2023-04-16T06:57:01.862Z,61.04
2023-04-16T06:58:01.827Z,61.25
2023-04-16T06:59:01.749Z,61.19
2023-04-16T07:00:01.713Z,61.10
2023-04-16T07:01:01.782Z,61.27
2023-04-16T07:02:02.009Z,61.09
2023-04-16T07:03:02.043Z,60.89
2023-04-16T07:04:01.735Z,60.81
2023-04-16T07:05:01.581Z,60.83
2023-04-16T07:06:01.654Z,60.84
2023-04-16T07:07:01.496Z,60.74
2023-04-16T07:08:01.446Z,60.80
2023-04-16T07:09:01.415Z,60.55
2023-04-16T07:10:01.430Z,60.49
2023-04-16T07:11:01.644Z,60.64
2023-04-16T07:12:01.865Z,60.41
2023-04-16T07:13:01.965Z,60.62
2023-04-16T07:14:02.219Z,60.64
2023-04-16T07:15:02.432Z,60.40
2023-04-16T07:16:02.615Z,60.51
2023-04-16T07:17:02.771Z,60.66
2023-04-16T07:18:02.976Z,60.62
2023-04-16T07:19:03.149Z,60.55
2023-04-16T07:20:03.297Z,60.62
2023-04-16T07:21:03.516Z,60.45
2023-04-16T07:22:03.719Z,60.36
2023-04-16T07:23:03.918Z,60.46
2023-04-16T07:24:04.081Z,60.88
2023-04-16T07:25:04.301Z,61.09
2023-04-16T07:26:04.530Z,60.87
2023-04-16T07:27:04.720Z,60.96
2023-04-16T07:28:04.937Z,61.11
2023-04-16T07:29:05.163Z,61.03
2023-04-16T07:30:05.308Z,60.97
2023-04-16T07:31:05.547Z,60.88
2023-04-16T07:32:05.723Z,60.98
2023-04-16T07:33:05.937Z,61.01
2023-04-16T07:34:06.107Z,61.08
2023-04-16T07:35:06.326Z,61.51
2023-04-16T07:36:06.521Z,61.47
2023-04-16T07:37:06.726Z,61.76
2023-04-16T07:38:06.945Z,61.91
2023-04-16T07:39:07.139Z,61.68
2023-04-16T07:40:07.348Z,61.17
2023-04-16T07:41:07.492Z,61.24
2023-04-16T07:42:07.708Z,61.60
2023-04-16T07:43:07.866Z,61.12
2023-04-16T07:44:08.090Z,61.15
2023-04-16T07:45:08.284Z,61.43
2023-04-16T07:46:08.590Z,61.69
2023-04-16T07:47:08.708Z,61.89
2023-04-16T07:48:08.880Z,61.99
2023-04-16T07:49:09.245Z,61.97
2023-04-16T07:50:09.375Z,62.11
2023-04-16T07:51:09.557Z,61.60
2023-04-16T07:52:09.720Z,61.38
2023-04-16T07:53:09.965Z,61.83
2023-04-16T07:54:10.130Z,61.49
2023-04-16T07:55:10.332Z,61.38
2023-04-16T07:56:10.545Z,61.96
2023-04-16T07:57:10.755Z,62.46
2023-04-16T07:58:10.952Z,62.57
2023-04-16T08:00:11.161Z,62.36
2023-04-16T08:01:11.102Z,62.27
2023-04-16T08:02:11.113Z,61.77
2023-04-16T08:03:11.209Z,61.82
2023-04-16T08:04:11.083Z,61.53
2023-04-16T08:05:11.021Z,61.62
2023-04-16T08:06:10.900Z,61.79
2023-04-16T08:07:10.844Z,61.71
2023-04-16T08:08:10.803Z,61.55
2023-04-16T08:09:10.948Z,61.57
2023-04-16T08:10:10.687Z,61.55
2023-04-16T08:11:10.650Z,61.45
2023-04-16T08:12:10.593Z,61.39
2023-04-16T08:13:10.553Z,61.09
2023-04-16T08:14:10.505Z,61.12
2023-04-16T08:15:10.535Z,60.88
2023-04-16T08:16:10.513Z,60.31
2023-04-16T08:17:10.420Z,60.39
2023-04-16T08:18:10.388Z,60.28
2023-04-16T08:19:10.695Z,60.36
2023-04-16T08:20:13.027Z,60.08
2023-04-16T08:21:10.258Z,60.07
2023-04-16T08:22:10.208Z,60.36
2023-04-16T08:23:10.172Z,60.15
2023-04-16T08:24:10.153Z,60.12
2023-04-16T08:25:10.118Z,60.07
2023-04-16T08:26:10.081Z,59.81
2023-04-16T08:27:18.429Z,60.26
2023-04-16T08:28:10.969Z,60.12
2023-04-16T08:29:10.119Z,60.37
2023-04-16T08:30:09.858Z,60.22
2023-04-16T08:31:09.819Z,60.29
2023-04-16T08:32:09.843Z,60.47
2023-04-16T08:33:09.795Z,60.67
2023-04-16T08:34:09.742Z,59.90
2023-04-16T08:35:09.679Z,60.18
2023-04-16T08:36:09.630Z,59.84
2023-04-16T08:37:09.621Z,59.67
2023-04-16T08:38:09.530Z,59.14
2023-04-16T08:39:09.799Z,58.60
2023-04-16T08:40:09.420Z,59.36
2023-04-16T08:41:09.367Z,58.60
2023-04-16T08:42:09.324Z,58.91
2023-04-16T08:43:09.291Z,58.95
2023-04-16T08:44:09.239Z,58.56
2023-04-16T08:45:09.202Z,59.13
2023-04-16T08:46:09.176Z,59.50
2023-04-16T08:47:09.138Z,59.54
2023-04-16T08:48:09.056Z,59.65
2023-04-16T08:49:09.350Z,59.45
2023-04-16T08:50:08.962Z,59.40
2023-04-16T08:51:08.918Z,59.10
2023-04-16T08:52:08.864Z,59.20
2023-04-16T08:53:08.823Z,59.12
2023-04-16T08:54:08.821Z,58.84
2023-04-16T08:55:08.775Z,58.77
2023-04-16T08:56:08.830Z,58.70
2023-04-16T08:57:09.060Z,59.04
2023-04-16T08:58:09.257Z,59.14
2023-04-16T08:59:09.729Z,58.76
2023-04-16T09:00:09.698Z,58.86
2023-04-16T09:01:09.928Z,58.35
2023-04-16T09:02:10.193Z,58.03
2023-04-16T09:03:10.341Z,58.22
2023-04-16T09:04:10.888Z,57.65
2023-04-16T09:05:10.477Z,57.36
2023-04-16T09:06:10.438Z,57.38
2023-04-16T09:07:10.376Z,57.57
2023-04-16T09:08:10.367Z,57.65
2023-04-16T09:09:10.868Z,57.85
2023-04-16T09:10:10.861Z,57.81
2023-04-16T09:11:11.155Z,57.65
2023-04-16T09:12:11.363Z,57.19
2023-04-16T09:13:11.558Z,57.37
2023-04-16T09:14:11.739Z,56.94
2023-04-16T09:15:12.045Z,57.09
2023-04-16T09:16:12.237Z,57.57
2023-04-16T09:17:12.486Z,57.30
2023-04-16T09:18:12.663Z,57.20
2023-04-16T09:19:12.831Z,57.07
2023-04-16T09:20:13.142Z,55.85
2023-04-16T09:21:13.327Z,56.16
2023-04-16T09:22:13.510Z,56.49
2023-04-16T09:23:13.711Z,56.63
2023-04-16T09:24:13.890Z,56.56
2023-04-16T09:25:14.127Z,56.98
2023-04-16T09:26:14.361Z,57.17
2023-04-16T09:27:14.535Z,56.52
2023-04-16T09:28:14.786Z,56.49
2023-04-16T09:29:14.954Z,56.25
2023-04-16T09:30:15.167Z,56.67
2023-04-16T09:31:15.369Z,56.11
2023-04-16T09:32:15.629Z,56.61
2023-04-16T09:33:15.778Z,56.33
2023-04-16T09:34:15.939Z,56.76
2023-04-16T09:35:16.138Z,56.09
2023-04-16T09:36:16.349Z,55.78
2023-04-16T09:37:16.568Z,56.20
2023-04-16T09:38:16.745Z,54.91
2023-04-16T09:39:16.969Z,55.30
2023-04-16T09:40:17.156Z,55.58
2023-04-16T09:41:17.388Z,55.56
2023-04-16T09:42:17.597Z,55.45
2023-04-16T09:43:17.785Z,55.68
2023-04-16T09:44:18.062Z,55.84
2023-04-16T09:45:18.244Z,55.55
2023-04-16T09:46:18.499Z,56.14
2023-04-16T09:47:18.670Z,56.70
2023-04-16T09:48:18.790Z,57.06
2023-04-16T09:49:19.040Z,56.43
2023-04-16T09:50:19.205Z,56.26
2023-04-16T09:51:19.401Z,56.59
2023-04-16T09:52:19.554Z,56.72
2023-04-16T09:53:19.747Z,57.19
2023-04-16T09:54:19.918Z,56.96
2023-04-16T09:55:20.113Z,56.77
2023-04-16T09:56:20.319Z,57.39
2023-04-16T09:57:20.609Z,57.94
2023-04-16T09:58:20.768Z,56.62
2023-04-16T09:59:20.927Z,56.63
2023-04-16T10:00:21.090Z,57.20
2023-04-16T10:01:21.314Z,56.59
2023-04-16T10:02:21.524Z,56.89
2023-04-16T10:03:21.813Z,56.29
2023-04-16T10:04:21.948Z,56.36
2023-04-16T10:05:22.069Z,56.56
2023-04-16T10:06:22.368Z,56.29
2023-04-16T10:07:22.511Z,56.30
2023-04-16T10:08:22.704Z,56.24
2023-04-16T10:09:22.985Z,55.15
2023-04-16T10:10:23.121Z,55.52
2023-04-16T10:11:23.401Z,55.21
2023-04-16T10:12:23.534Z,55.12
2023-04-16T10:13:23.757Z,55.35
2023-04-16T10:14:23.989Z,55.30
2023-04-16T10:15:24.140Z,55.52
2023-04-16T10:16:24.350Z,55.26
2023-04-16T10:17:24.658Z,55.21
2023-04-16T10:18:24.806Z,55.59
2023-04-16T10:19:24.972Z,55.22
2023-04-16T10:20:25.132Z,55.48
2023-04-16T10:21:25.385Z,56.29
2023-04-16T10:22:25.532Z,55.99
2023-04-16T10:23:25.694Z,55.94
2023-04-16T10:24:25.847Z,55.80
2023-04-16T10:25:26.048Z,57.31
2023-04-16T10:26:26.266Z,56.26
2023-04-16T10:27:26.463Z,56.15
2023-04-16T10:28:26.645Z,55.59
2023-04-16T10:29:26.817Z,56.26
2023-04-16T10:30:26.977Z,56.21
2023-04-16T10:31:27.186Z,56.05
2023-04-16T10:32:27.399Z,56.44
2023-04-16T10:33:27.528Z,56.59
2023-04-16T10:34:27.690Z,56.19
2023-04-16T10:35:27.898Z,55.90
2023-04-16T10:36:28.107Z,55.40
2023-04-16T10:37:28.292Z,55.42
2023-04-16T10:38:28.579Z,55.73
2023-04-16T10:39:28.749Z,55.58
2023-04-16T10:40:28.858Z,55.54
2023-04-16T10:41:29.051Z,55.30
2023-04-16T10:42:29.349Z,55.50
2023-04-16T10:43:29.547Z,55.00
2023-04-16T10:44:29.754Z,55.87
2023-04-16T10:45:29.894Z,54.34
2023-04-16T10:46:30.129Z,53.77
2023-04-16T10:47:30.334Z,54.07
2023-04-16T10:48:38.712Z,54.20
2023-04-16T10:49:31.403Z,54.20
2023-04-16T10:50:30.319Z,54.72
2023-04-16T10:51:30.253Z,54.97
2023-04-16T10:52:30.163Z,54.61
2023-04-16T10:53:30.126Z,54.99
2023-04-16T10:54:29.966Z,55.15
2023-04-16T10:55:29.903Z,54.88
2023-04-16T10:56:29.811Z,54.40
2023-04-16T10:57:29.728Z,53.65
2023-04-16T10:58:29.667Z,53.99
2023-04-16T10:59:29.634Z,54.16
2023-04-16T11:00:29.625Z,54.38
2023-04-16T11:01:29.662Z,53.91
2023-04-16T11:02:29.774Z,54.32
2023-04-16T11:03:29.613Z,53.76
2023-04-16T11:04:29.572Z,53.37
2023-04-16T11:05:29.455Z,53.07
2023-04-16T11:06:29.433Z,53.35
2023-04-16T11:07:29.418Z,52.75
2023-04-16T11:08:29.395Z,52.86
2023-04-16T11:09:29.337Z,52.99
2023-04-16T11:10:29.298Z,53.41
2023-04-16T11:11:29.263Z,52.88
2023-04-16T11:12:29.267Z,52.96
2023-04-16T11:13:29.189Z,53.46
2023-04-16T11:14:29.142Z,53.37
2023-04-16T11:15:29.112Z,53.02
2023-04-16T11:16:29.079Z,52.77
2023-04-16T11:17:29.086Z,53.13
2023-04-16T11:18:29.020Z,53.94
2023-04-16T11:19:28.991Z,53.86
2023-04-16T11:20:28.972Z,54.03
2023-04-16T11:21:29.054Z,53.59
2023-04-16T11:22:29.296Z,52.58
2023-04-16T11:23:29.505Z,52.56
2023-04-16T11:24:29.676Z,53.40
2023-04-16T11:25:29.924Z,53.37
2023-04-16T11:26:30.119Z,52.82
2023-04-16T11:27:30.770Z,52.08
2023-04-16T11:28:30.218Z,52.73
2023-04-16T11:29:30.181Z,53.28
2023-04-16T11:30:30.150Z,52.25
2023-04-16T11:31:30.829Z,52.84
2023-04-16T11:32:30.125Z,50.68
2023-04-16T11:33:30.804Z,50.44
2023-04-16T11:34:30.020Z,51.86
2023-04-16T11:35:29.955Z,51.27
2023-04-16T11:36:29.901Z,51.12
2023-04-16T11:37:29.847Z,51.52
2023-04-16T11:38:29.783Z,50.46
2023-04-16T11:39:29.797Z,50.52
2023-04-16T11:40:29.998Z,50.63
2023-04-16T11:41:30.271Z,50.90
2023-04-16T11:42:30.492Z,50.72
2023-04-16T11:43:30.734Z,50.60
2023-04-16T11:44:30.906Z,50.34
2023-04-16T11:45:31.191Z,49.31
2023-04-16T11:46:31.389Z,49.98
2023-04-16T11:47:31.718Z,50.08
2023-04-16T11:48:31.464Z,49.04
2023-04-16T11:49:31.404Z,49.91
2023-04-16T11:50:31.355Z,49.20
2023-04-16T11:51:31.297Z,49.19
2023-04-16T11:52:31.256Z,49.07
2023-04-16T11:53:31.171Z,49.61
2023-04-16T11:54:31.093Z,49.98
2023-04-16T11:55:31.152Z,49.66
2023-04-16T11:56:31.339Z,49.42
2023-04-16T11:57:31.529Z,50.02
2023-04-16T11:58:31.676Z,50.75
2023-04-16T11:59:31.894Z,50.60
2023-04-16T12:00:32.069Z,50.09
2023-04-16T12:01:32.236Z,49.93
2023-04-16T12:02:32.514Z,49.85
2023-04-16T12:03:32.804Z,48.83
2023-04-16T12:04:32.800Z,48.45
2023-04-16T12:05:32.911Z,48.20
2023-04-16T12:06:33.103Z,47.72
2023-04-16T12:07:34.280Z,48.19
2023-04-16T12:08:33.280Z,48.47
2023-04-16T12:09:33.203Z,48.38
2023-04-16T12:10:33.123Z,48.77
2023-04-16T12:11:33.030Z,48.76
2023-04-16T12:12:32.968Z,49.46
2023-04-16T12:13:32.907Z,49.02
2023-04-16T12:14:32.842Z,49.03
2023-04-16T12:15:32.828Z,48.82
2023-04-16T12:16:34.640Z,48.82
2023-04-16T12:17:33.197Z,48.63
2023-04-16T12:18:33.080Z,49.31
2023-04-16T12:19:32.996Z,48.98
2023-04-16T12:20:32.912Z,49.49
2023-04-16T12:21:33.818Z,48.46
2023-04-16T12:22:33.632Z,48.34
2023-04-16T12:23:32.756Z,48.41
2023-04-16T12:24:32.669Z,48.31
2023-04-16T12:25:32.612Z,48.70
2023-04-16T12:26:32.807Z,47.40
2023-04-16T12:27:33.233Z,46.74
2023-04-16T12:28:33.206Z,47.71
2023-04-16T12:29:33.366Z,48.02
2023-04-16T12:30:33.657Z,47.45
2023-04-16T12:31:33.706Z,48.12
2023-04-16T12:32:33.902Z,47.72
2023-04-16T12:33:34.145Z,47.58
2023-04-16T12:34:48.404Z,47.51
2023-04-16T12:35:35.207Z,47.38
2023-04-16T12:36:34.055Z,47.37
2023-04-16T12:37:33.984Z,47.28
2023-04-16T12:38:33.876Z,47.36
2023-04-16T12:39:33.770Z,48.03
2023-04-16T12:40:33.685Z,48.54
2023-04-16T12:41:33.604Z,48.37
2023-04-16T12:42:33.500Z,47.27
2023-04-16T12:43:33.414Z,47.72
2023-04-16T12:44:33.312Z,48.54
2023-04-16T12:45:33.242Z,48.10
2023-04-16T12:46:33.189Z,47.81
2023-04-16T12:47:33.161Z,47.47
2023-04-16T12:48:32.958Z,47.66
2023-04-16T12:49:32.869Z,47.63
2023-04-16T12:50:32.790Z,47.06
2023-04-16T12:51:32.665Z,46.64
2023-04-16T12:52:32.555Z,45.79
2023-04-16T12:53:32.457Z,45.01
2023-04-16T12:54:32.364Z,45.10